Time;durP1;ratioP1;P1;durP2;ratioP2;P2;SDS_P1;SDS_P2;PMS_P1;PMS_P2;Temp;Humidity;BMP_temperature;BMP_pressure;BME280_temperature;BME280_humidity;BME280_pressure;Samples;Min_cycle;Max_cycle;Signal;HPM_P1;HPM_P2
2023/09/18 00:00:59;;;;;;;5.40;3.27;;;;;;;18.92;100.00;100387.38;6026003;28;20026;-65
2023/09/18 00:03:55;;;;;;;5.87;3.83;;;;;;;18.99;100.00;100390.06;6025230;28;20282;-65
2023/09/18 00:06:50;;;;;;;5.32;2.97;;;;;;;19.00;100.00;100402.44;6024976;28;20026;-65
2023/09/18 00:09:45;;;;;;;5.47;3.23;;;;;;;18.86;100.00;100390.06;6025585;28;20034;-65
2023/09/18 00:12:41;;;;;;;5.73;3.13;;;;;;;18.92;100.00;100403.50;6025129;28;20042;-65
2023/09/18 00:15:37;;;;;;;6.27;2.90;;;;;;;18.91;100.00;100390.28;6025050;28;20106;-65
2023/09/18 00:18:32;;;;;;;6.57;3.35;;;;;;;18.87;100.00;100380.97;6025656;28;20026;-65
2023/09/18 00:21:30;;;;;;;5.57;2.90;;;;;;;18.86;100.00;100393.56;6029670;28;20037;-66
2023/09/18 00:24:25;;;;;;;5.57;3.42;;;;;;;18.73;100.00;100372.09;6025359;28;20030;-65
2023/09/18 00:27:21;;;;;;;7.50;2.90;;;;;;;18.76;100.00;100379.72;6025348;28;20034;-65
2023/09/18 00:30:16;;;;;;;6.75;3.25;;;;;;;18.67;100.00;100377.47;6025349;28;20386;-65
2023/09/18 00:33:11;;;;;;;5.32;3.75;;;;;;;18.56;100.00;100360.13;6025378;28;20078;-65
2023/09/18 00:36:07;;;;;;;7.57;3.40;;;;;;;18.62;100.00;100359.28;6027108;28;20034;-65
2023/09/18 00:39:03;;;;;;;6.07;3.13;;;;;;;18.54;100.00;100343.38;6030264;28;20042;-66
2023/09/18 00:41:58;;;;;;;5.88;3.40;;;;;;;18.45;100.00;100336.53;6029895;28;20026;-66
2023/09/18 00:44:54;;;;;;;7.68;3.20;;;;;;;18.56;100.00;100348.53;6028750;28;20540;-65
2023/09/18 00:47:50;;;;;;;5.30;2.92;;;;;;;18.54;100.00;100329.09;6029911;28;20033;-66
2023/09/18 00:50:46;;;;;;;5.50;3.08;;;;;;;18.53;100.00;100333.66;6029497;28;20022;-65
2023/09/18 00:53:44;;;;;;;4.40;2.70;;;;;;;18.52;100.00;100323.94;6028439;28;20033;-66
2023/09/18 00:56:39;;;;;;;6.22;3.03;;;;;;;18.49;100.00;100324.34;6027731;28;20393;-65
2023/09/18 00:59:34;;;;;;;7.65;3.42;;;;;;;18.30;100.00;100290.25;6028593;28;20046;-65
2023/09/18 01:02:30;;;;;;;7.43;3.47;;;;;;;18.47;100.00;100310.28;6029167;28;20069;-66
2023/09/18 01:05:25;;;;;;;6.37;3.00;;;;;;;18.35;100.00;100304.69;6029130;28;20037;-66
2023/09/18 01:08:20;;;;;;;5.80;3.20;;;;;;;18.39;100.00;100308.66;6027494;28;20039;-66
2023/09/18 01:11:53;;;;;;;6.25;2.95;;;;;;;18.41;100.00;100305.75;6029194;28;20053;-65
2023/09/18 01:15:03;;;;;;;4.80;3.08;;;;;;;18.28;100.00;100284.25;6026986;28;20033;-65
2023/09/18 01:17:59;;;;;;;5.65;3.10;;;;;;;18.41;100.00;100295.00;6036980;28;20495;-65
2023/09/18 01:20:55;;;;;;;5.40;3.40;;;;;;;18.40;100.00;100282.59;6032691;28;20037;-65
2023/09/18 01:23:51;;;;;;;4.82;3.10;;;;;;;18.36;100.00;100271.47;6028753;28;20384;-66
2023/09/18 01:26:46;;;;;;;5.05;3.10;;;;;;;18.41;100.00;100281.56;6028793;28;20154;-65
2023/09/18 01:29:42;;;;;;;5.17;3.23;;;;;;;18.28;100.00;100270.84;6028941;28;20094;-65
2023/09/18 01:32:38;;;;;;;5.83;3.00;;;;;;;18.19;100.00;100258.66;6028775;28;20508;-66
2023/09/18 01:35:34;;;;;;;4.93;2.90;;;;;;;18.20;100.00;100257.63;6026958;28;20022;-65
2023/09/18 01:38:29;;;;;;;5.97;3.40;;;;;;;18.17;100.00;100241.94;6027356;28;20038;-66
2023/09/18 01:41:25;;;;;;;5.88;3.17;;;;;;;18.25;100.00;100249.78;6025288;28;20027;-66
2023/09/18 01:44:20;;;;;;;5.03;3.13;;;;;;;18.13;100.00;100246.03;6022708;28;20043;-66
2023/09/18 01:47:18;;;;;;;5.82;3.30;;;;;;;18.15;100.00;100244.00;6026884;28;20525;-66
2023/09/18 01:50:13;;;;;;;6.93;3.38;;;;;;;18.12;100.00;100239.88;6028680;28;20397;-66
2023/09/18 01:53:08;;;;;;;10.27;3.60;;;;;;;18.00;100.00;100246.03;6028289;28;20077;-65
2023/09/18 01:56:04;;;;;;;6.20;3.80;;;;;;;18.03;100.00;100251.84;6027087;28;20028;-66
2023/09/18 01:58:59;;;;;;;5.13;3.17;;;;;;;17.99;100.00;100253.25;6027051;28;20042;-66
2023/09/18 02:01:56;;;;;;;5.25;3.35;;;;;;;17.98;100.00;100251.63;6028635;28;20257;-66
2023/09/18 02:04:52;;;;;;;7.28;3.45;;;;;;;17.85;100.00;100227.47;6027233;28;20038;-65
2023/09/18 02:07:47;;;;;;;5.53;3.38;;;;;;;17.89;100.00;100227.88;6027135;28;20108;-65
2023/09/18 02:10:42;;;;;;;8.83;3.50;;;;;;;17.90;100.00;100230.38;6022758;28;20034;-65
2023/09/18 02:13:38;;;;;;;6.10;3.10;;;;;;;17.87;100.00;100216.53;6027816;28;20565;-66
2023/09/18 02:16:34;;;;;;;6.33;3.50;;;;;;;17.87;100.00;100209.31;6027547;28;20034;-65
2023/09/18 02:19:29;;;;;;;7.13;3.17;;;;;;;17.87;100.00;100219.22;6027125;28;20273;-66
2023/09/18 02:22:25;;;;;;;4.97;3.22;;;;;;;17.81;100.00;100210.94;6032950;28;20026;-66
2023/09/18 02:25:20;;;;;;;6.47;3.50;;;;;;;17.83;100.00;100214.25;6027073;28;20030;-66
2023/09/18 02:28:16;;;;;;;9.30;3.73;;;;;;;17.79;100.00;100210.34;6027535;28;20087;-65
2023/09/18 02:31:11;;;;;;;7.18;4.07;;;;;;;17.76;100.00;100217.97;6027470;28;20030;-64
2023/09/18 02:34:09;;;;;;;5.78;3.58;;;;;;;17.73;100.00;100208.47;6027077;28;20607;-66
2023/09/18 02:37:04;;;;;;;6.35;3.20;;;;;;;17.61;100.00;100195.88;6026824;28;20034;-65
2023/09/18 02:40:00;;;;;;;6.67;3.97;;;;;;;17.68;100.00;100200.22;6027267;28;20461;-64
2023/09/18 02:42:55;;;;;;;6.57;3.78;;;;;;;17.63;100.00;100202.69;6026775;28;20027;-65
2023/09/18 02:45:51;;;;;;;6.80;3.87;;;;;;;17.61;100.00;100199.38;6026316;28;20030;-66
2023/09/18 02:48:46;;;;;;;8.75;3.85;;;;;;;17.55;100.00;100177.91;6027055;28;20117;-64
2023/09/18 02:51:42;;;;;;;7.97;4.10;;;;;;;17.59;100.00;100185.34;6026524;28;20389;-64
2023/09/18 02:54:37;;;;;;;5.97;4.00;;;;;;;17.61;100.00;100182.47;6026066;28;20033;-64
2023/09/18 02:57:32;;;;;;;7.00;3.67;;;;;;;17.65;100.00;100184.53;6026593;28;20026;-65
2023/09/18 03:00:28;;;;;;;5.63;3.63;;;;;;;17.59;100.00;100173.78;6026714;28;20046;-64
2023/09/18 03:03:24;;;;;;;7.37;4.20;;;;;;;17.60;100.00;100165.56;6024945;28;20281;-65
2023/09/18 03:06:19;;;;;;;8.65;4.03;;;;;;;17.71;100.00;100170.31;6026367;28;20105;-65
2023/09/18 03:09:16;;;;;;;8.07;3.63;;;;;;;17.75;100.00;100173.38;6024661;28;20038;-64
2023/09/18 03:12:11;;;;;;;7.25;4.03;;;;;;;17.70;100.00;100176.69;6025792;28;20096;-65
2023/09/18 03:15:06;;;;;;;5.53;3.80;;;;;;;17.67;100.00;100166.38;6025840;28;20026;-65
2023/09/18 03:18:02;;;;;;;7.90;3.80;;;;;;;17.61;100.00;100164.50;6018368;28;20508;-66
2023/09/18 03:20:58;;;;;;;7.70;4.10;;;;;;;17.52;100.00;100152.31;6032041;28;20019;-65
2023/09/18 03:23:53;;;;;;;6.60;3.83;;;;;;;17.51;100.00;100145.28;6026337;28;20030;-65
2023/09/18 03:26:49;;;;;;;7.10;4.53;;;;;;;17.55;100.00;100146.56;6025471;28;20046;-65
2023/09/18 03:29:44;;;;;;;7.72;3.90;;;;;;;17.49;100.00;100139.31;6026510;28;20030;-65
2023/09/18 03:32:39;;;;;;;5.37;3.70;;;;;;;17.59;100.00;100138.91;6025843;28;20038;-65
2023/09/18 03:35:46;;;;;;;7.23;3.83;;;;;;;17.47;100.00;100122.63;6025376;28;20022;-65
2023/09/18 03:38:41;;;;;;;7.30;4.18;;;;;;;17.63;100.00;100135.66;6023104;28;20026;-65
2023/09/18 03:41:37;;;;;;;8.30;4.95;;;;;;;17.62;100.00;100115.22;6026396;28;20029;-65
2023/09/18 03:44:32;;;;;;;10.37;4.77;;;;;;;17.72;100.00;100112.94;6025738;28;20041;-64
2023/09/18 03:47:27;;;;;;;7.90;4.30;;;;;;;17.76;100.00;100116.88;6025273;28;20537;-65
2023/09/18 03:50:23;;;;;;;8.50;4.30;;;;;;;17.69;100.00;100105.31;6026186;28;20049;-65
2023/09/18 03:53:18;;;;;;;7.83;4.00;;;;;;;17.79;100.00;100103.03;6025931;28;20029;-66
2023/09/18 03:56:13;;;;;;;7.50;4.40;;;;;;;17.83;100.00;100100.75;6025258;28;20118;-65
2023/09/18 03:59:09;;;;;;;9.80;4.77;;;;;;;17.89;100.00;100104.47;6025673;28;20070;-64
2023/09/18 04:02:05;;;;;;;10.57;5.10;;;;;;;17.79;100.00;100076.22;6025660;28;20389;-65
2023/09/18 04:05:00;;;;;;;6.75;3.97;;;;;;;17.81;100.00;100076.81;6025172;28;20389;-65
2023/09/18 04:07:56;;;;;;;7.20;4.20;;;;;;;17.85;100.00;100083.41;6025656;28;20018;-64
2023/09/18 04:10:55;;;;;;;8.70;4.13;;;;;;;17.76;100.00;100057.84;6024925;28;20026;-65
2023/09/18 04:13:50;;;;;;;8.63;4.70;;;;;;;17.84;100.00;100054.13;6023808;28;20157;-65
2023/09/18 04:16:45;;;;;;;6.27;4.13;;;;;;;17.89;100.00;100067.72;6024740;28;20030;-65
2023/09/18 04:19:41;;;;;;;8.50;4.50;;;;;;;17.89;100.00;100054.31;6021819;28;20034;-65
2023/09/18 04:22:36;;;;;;;8.57;4.67;;;;;;;17.87;100.00;100052.88;6024218;28;20038;-65
2023/09/18 04:25:32;;;;;;;7.78;4.15;;;;;;;17.79;100.00;100037.84;6024653;28;20040;-65
2023/09/18 04:28:27;;;;;;;9.70;4.45;;;;;;;17.83;100.00;100031.84;6025443;28;20030;-65
2023/09/18 04:31:22;;;;;;;8.73;4.50;;;;;;;17.84;100.00;100033.50;6025282;28;20045;-65
2023/09/18 04:34:18;;;;;;;8.15;4.45;;;;;;;17.75;100.00;100015.13;6023738;28;20113;-65
2023/09/18 04:37:14;;;;;;;6.90;4.43;;;;;;;17.83;100.00;100026.47;6024618;28;20048;-65
2023/09/18 04:40:09;;;;;;;7.13;4.47;;;;;;;17.73;100.00;100009.16;6025323;28;20045;-65
2023/09/18 04:43:05;;;;;;;9.18;4.20;;;;;;;17.67;100.00;100005.47;6024664;28;20022;-64
2023/09/18 04:46:03;;;;;;;7.60;4.07;;;;;;;17.64;100.00;100013.09;6023264;28;20393;-65
2023/09/18 04:48:58;;;;;;;9.95;5.40;;;;;;;17.59;100.00;100012.91;6025344;28;20261;-65
2023/09/18 04:51:55;;;;;;;8.93;4.67;;;;;;;17.44;100.00;99988.16;6024582;28;20105;-65
2023/09/18 04:54:50;;;;;;;8.73;4.82;;;;;;;17.42;100.00;99985.66;6023549;28;20332;-65
2023/09/18 04:57:45;;;;;;;10.32;5.03;;;;;;;17.54;100.00;99988.56;6022094;28;20485;-64
2023/09/18 05:00:41;;;;;;;9.90;4.97;;;;;;;17.58;100.00;99995.97;6008931;28;20162;-65
2023/09/18 05:03:36;;;;;;;8.15;4.82;;;;;;;17.55;100.00;99996.41;6024203;28;20093;-65
2023/09/18 05:06:32;;;;;;;7.97;4.37;;;;;;;17.62;100.00;99989.19;6018916;28;20035;-64
2023/09/18 05:09:27;;;;;;;6.57;4.40;;;;;;;17.67;100.00;99975.97;6018995;28;20034;-64
2023/09/18 05:12:23;;;;;;;13.00;4.63;;;;;;;17.70;100.00;99975.53;6013881;28;20062;-65
2023/09/18 05:15:18;;;;;;;7.38;4.30;;;;;;;17.69;100.00;99962.34;6020817;28;20394;-65
2023/09/18 05:18:13;;;;;;;8.73;5.13;;;;;;;17.84;100.00;99968.28;6026903;28;20121;-65
2023/09/18 05:21:09;;;;;;;7.63;4.33;;;;;;;17.94;100.00;99963.28;6026705;28;20042;-66
2023/09/18 05:24:04;;;;;;;7.68;4.10;;;;;;;17.94;100.00;99954.44;6029090;28;20022;-65
2023/09/18 05:27:00;;;;;;;9.27;4.53;;;;;;;17.88;100.00;99944.56;6025450;28;20400;-65
2023/09/18 05:29:55;;;;;;;7.05;3.90;;;;;;;18.00;100.00;99945.53;6019340;28;20374;-65
2023/09/18 05:32:51;;;;;;;7.97;5.03;;;;;;;18.18;100.00;99942.97;6022733;28;20050;-65
2023/09/18 05:35:46;;;;;;;9.15;4.55;;;;;;;18.32;100.00;99950.72;6018522;28;20096;-65
2023/09/18 05:38:43;;;;;;;7.17;4.57;;;;;;;18.35;100.00;99938.75;6016556;28;20448;-65
2023/09/18 05:41:39;;;;;;;7.60;4.57;;;;;;;18.39;100.00;99935.44;6023794;28;20269;-65
2023/09/18 05:44:34;;;;;;;6.97;4.30;;;;;;;18.44;100.00;99930.22;6024586;28;20430;-65
2023/09/18 05:47:32;;;;;;;8.07;4.50;;;;;;;18.40;100.00;99914.75;6019156;28;20038;-65
2023/09/18 05:50:29;;;;;;;7.07;4.03;;;;;;;18.59;100.00;99943.38;6027870;28;20058;-65
2023/09/18 05:53:25;;;;;;;6.88;3.60;;;;;;;18.69;100.00;99965.22;6025601;28;20042;-66
2023/09/18 05:56:20;;;;;;;8.17;4.50;;;;;;;18.72;100.00;99967.47;6020742;28;20031;-65
2023/09/18 05:59:16;;;;;;;9.27;4.35;;;;;;;18.80;100.00;99967.22;6028663;28;20324;-65
2023/09/18 06:02:12;;;;;;;6.68;4.00;;;;;;;18.86;100.00;99958.25;6028013;28;20046;-66
2023/09/18 06:05:10;;;;;;;6.78;4.00;;;;;;;18.84;100.00;99941.53;6027073;28;20034;-65
2023/09/18 06:08:05;;;;;;;6.75;5.03;;;;;;;18.94;100.00;99947.25;6028437;28;20158;-65
2023/09/18 06:11:01;;;;;;;6.78;4.13;;;;;;;18.97;100.00;99938.75;6027259;28;20098;-65
2023/09/18 06:13:56;;;;;;;7.70;4.37;;;;;;;18.95;100.00;99924.72;6026262;28;20033;-65
2023/09/18 06:16:51;;;;;;;9.50;4.90;;;;;;;18.93;100.00;99932.19;6020908;28;20044;-64
2023/09/18 06:19:47;;;;;;;6.37;4.03;;;;;;;18.82;100.00;99922.13;6020925;28;20038;-65
2023/09/18 06:22:42;;;;;;;8.07;4.77;;;;;;;18.77;100.00;99916.59;6031678;28;20285;-65
2023/09/18 06:25:37;;;;;;;9.13;4.78;;;;;;;18.75;100.00;99934.78;6026679;28;20030;-65
2023/09/18 06:28:33;;;;;;;8.10;4.60;;;;;;;18.70;100.00;99906.94;6027841;28;20042;-65
2023/09/18 06:31:28;;;;;;;9.23;4.93;;;;;;;18.78;100.00;99907.50;6026995;28;20042;-65
2023/09/18 06:34:24;;;;;;;7.20;4.53;;;;;;;18.85;100.00;99886.78;6027129;28;20038;-65
2023/09/18 06:37:20;;;;;;;7.60;3.90;;;;;;;19.02;100.00;99887.84;6026557;28;20035;-66
2023/09/18 06:40:15;;;;;;;8.52;4.50;;;;;;;19.25;100.00;99881.84;6011783;28;20572;-66
2023/09/18 06:43:10;;;;;;;8.25;4.32;;;;;;;19.50;100.00;99879.13;6025971;28;20026;-66
2023/09/18 06:46:09;;;;;;;8.00;4.30;;;;;;;19.65;100.00;99855.34;6026034;28;20026;-65
2023/09/18 06:49:04;;;;;;;7.88;4.28;;;;;;;19.84;100.00;99842.72;6027301;28;20042;-65
2023/09/18 06:52:00;;;;;;;6.80;3.75;;;;;;;19.89;100.00;99832.91;6026724;28;20129;-66
2023/09/18 06:54:57;;;;;;;8.60;3.80;;;;;;;20.04;100.00;99830.63;6026140;28;20034;-66
2023/09/18 06:57:53;;;;;;;9.18;3.88;;;;;;;20.04;100.00;99827.94;6027044;28;20038;-65
2023/09/18 07:00:50;;;;;;;8.18;4.47;;;;;;;20.07;100.00;99822.09;6026496;28;20398;-65
2023/09/18 07:03:46;;;;;;;6.53;3.90;;;;;;;20.19;98.62;99831.00;6027067;28;20030;-65
2023/09/18 07:06:42;;;;;;;5.63;3.65;;;;;;;20.14;98.75;99830.88;6025930;28;20089;-66
2023/09/18 07:09:37;;;;;;;4.97;3.40;;;;;;;20.08;99.79;99842.56;6026099;28;20034;-65
2023/09/18 07:12:32;;;;;;;5.47;3.37;;;;;;;20.02;100.00;99846.19;6026021;28;20546;-66
2023/09/18 07:15:28;;;;;;;6.20;3.73;;;;;;;20.00;100.00;99842.88;6025847;28;20377;-66
2023/09/18 07:18:23;;;;;;;7.83;3.60;;;;;;;19.90;100.00;99836.41;6026321;28;20278;-65
2023/09/18 07:21:18;;;;;;;6.40;3.73;;;;;;;19.94;100.00;99853.75;6033517;28;20551;-65
2023/09/18 07:24:16;;;;;;;7.47;3.57;;;;;;;19.86;100.00;99852.19;6026160;28;20038;-65
2023/09/18 07:27:11;;;;;;;10.82;3.88;;;;;;;19.81;100.00;99862.78;6025769;28;20034;-65
2023/09/18 07:30:07;;;;;;;9.00;4.35;;;;;;;19.85;100.00;99861.31;6026090;28;20041;-66
2023/09/18 07:33:03;;;;;;;6.22;3.85;;;;;;;19.84;100.00;99865.03;6026005;28;20165;-65
2023/09/18 07:35:59;;;;;;;7.85;3.75;;;;;;;19.99;100.00;99872.72;6025202;28;20109;-64
2023/09/18 07:38:56;;;;;;;7.53;3.40;;;;;;;20.09;100.00;99863.06;6026179;28;20034;-66
2023/09/18 07:41:52;;;;;;;11.63;3.80;;;;;;;20.24;100.00;99870.75;6021612;28;20468;-66
2023/09/18 07:44:47;;;;;;;8.88;4.03;;;;;;;20.29;99.86;99861.97;6024289;28;20037;-66
2023/09/18 07:47:43;;;;;;;7.17;3.77;;;;;;;20.53;98.19;99869.06;6025858;28;20034;-65
2023/09/18 07:50:44;;;;;;;6.10;3.33;;;;;;;20.64;97.70;99866.41;6025768;28;20269;-66
2023/09/18 07:53:39;;;;;;;10.10;4.18;;;;;;;20.68;97.27;99855.97;6025463;28;20184;-66
2023/09/18 07:56:36;;;;;;;7.38;3.67;;;;;;;20.77;95.88;99865.34;6024933;28;20461;-65
2023/09/18 07:59:31;;;;;;;7.05;3.67;;;;;;;20.63;95.40;99861.22;6025726;28;20093;-66
2023/09/18 08:02:28;;;;;;;7.70;3.53;;;;;;;20.69;95.89;99868.38;6025666;28;20030;-66
2023/09/18 08:05:27;;;;;;;9.20;3.90;;;;;;;20.78;95.98;99888.56;6025125;28;20779;-66
2023/09/18 08:08:23;;;;;;;7.97;3.67;;;;;;;20.91;95.43;99882.94;6022844;28;20057;-66
2023/09/18 08:11:18;;;;;;;8.45;4.15;;;;;;;21.04;95.46;99888.09;6024683;28;20034;-65
2023/09/18 08:14:14;;;;;;;6.30;3.37;;;;;;;21.24;94.49;99877.81;6024813;28;20037;-66
2023/09/18 08:17:09;;;;;;;8.30;3.70;;;;;;;21.42;93.23;99884.13;6019380;28;20045;-66
2023/09/18 08:20:11;;;;;;;9.13;3.55;;;;;;;21.76;91.10;99885.94;6029904;28;20562;-65
2023/09/18 08:23:07;;;;;;;7.82;3.70;;;;;;;21.87;90.42;99887.81;6027421;28;20481;-66
2023/09/18 08:26:03;;;;;;;7.30;3.50;;;;;;;22.10;89.56;99893.13;6024522;28;20038;-65
2023/09/18 08:28:59;;;;;;;8.57;3.35;;;;;;;22.26;87.75;99894.22;6025103;28;20278;-64
2023/09/18 08:31:54;;;;;;;9.03;3.07;;;;;;;22.42;88.28;99913.19;6025259;28;20503;-66
2023/09/18 08:34:49;;;;;;;8.23;3.30;;;;;;;22.46;86.66;99906.25;6024451;28;20297;-66
2023/09/18 08:37:44;;;;;;;5.90;2.93;;;;;;;22.56;86.43;99899.41;6025099;28;21351;-65
2023/09/18 08:40:41;;;;;;;6.40;3.23;;;;;;;22.71;85.20;99905.09;6024944;28;20114;-65
2023/09/18 08:43:38;;;;;;;7.70;2.90;;;;;;;22.98;82.34;99890.66;6024417;28;20272;-66
2023/09/18 08:46:34;;;;;;;8.65;2.78;;;;;;;23.10;81.69;99904.13;6022609;28;20125;-66
2023/09/18 08:49:29;;;;;;;5.90;2.55;;;;;;;23.07;79.75;99880.25;6024864;28;20493;-65
2023/09/18 08:52:25;;;;;;;6.60;2.75;;;;;;;23.18;79.97;99890.16;6024190;28;20098;-65
2023/09/18 08:55:22;;;;;;;9.13;3.10;;;;;;;23.32;78.50;99886.00;6023680;28;20117;-65
2023/09/18 08:58:19;;;;;;;5.82;3.00;;;;;;;23.52;77.42;99912.59;6030036;28;20075;-66
2023/09/18 09:01:14;;;;;;;8.57;3.20;;;;;;;23.49;77.98;99897.66;6034307;28;20049;-66
2023/09/18 09:04:09;;;;;;;11.10;3.30;;;;;;;23.47;78.73;99899.81;6022700;28;20042;-66
2023/09/18 09:07:06;;;;;;;8.20;3.17;;;;;;;23.47;77.38;99877.34;6027837;28;20041;-66
2023/09/18 09:10:01;;;;;;;5.85;2.50;;;;;;;23.38;77.29;99887.75;6028244;28;20057;-65
2023/09/18 09:12:58;;;;;;;6.63;2.80;;;;;;;23.51;77.42;99894.69;6029149;28;20034;-65
2023/09/18 09:15:56;;;;;;;7.72;2.72;;;;;;;23.49;76.38;99881.41;6027954;28;20026;-65
2023/09/18 09:18:51;;;;;;;7.25;2.80;;;;;;;23.38;77.23;99876.13;6028844;28;20022;-66
2023/09/18 09:21:46;;;;;;;10.05;2.50;;;;;;;23.38;77.22;99882.34;6029424;28;20042;-66
2023/09/18 09:24:43;;;;;;;7.07;2.50;;;;;;;23.42;76.95;99894.34;6026550;28;20038;-66
2023/09/18 09:27:42;;;;;;;7.78;2.47;;;;;;;23.45;77.64;99893.84;6029428;28;20038;-66
2023/09/18 09:30:38;;;;;;;6.40;2.30;;;;;;;23.38;76.33;99887.75;6028568;28;20034;-65
2023/09/18 09:33:33;;;;;;;5.73;2.43;;;;;;;23.36;76.47;99883.63;6028949;28;20069;-66
2023/09/18 09:36:28;;;;;;;7.87;2.43;;;;;;;23.53;76.07;99893.41;6028117;28;20391;-66
2023/09/18 09:39:25;;;;;;;8.70;2.83;;;;;;;23.60;75.24;99885.06;6024479;28;20470;-66
2023/09/18 09:42:24;;;;;;;6.20;2.50;;;;;;;23.83;74.81;99892.16;6026982;28;20061;-65
2023/09/18 09:45:20;;;;;;;6.50;2.35;;;;;;;24.25;72.92;99891.31;6026388;28;20026;-66
2023/09/18 09:48:15;;;;;;;6.90;2.23;;;;;;;24.18;73.09;99876.31;6027463;28;20385;-65
2023/09/18 09:51:20;;;;;;;10.38;2.92;;;;;;;23.86;75.33;99878.09;6028377;28;20517;-66
2023/09/18 09:54:33;;;;;;;5.70;2.75;;;;;;;23.99;74.16;99878.53;6027375;28;20030;-66
2023/09/18 09:57:29;;;;;;;8.73;2.40;;;;;;;23.81;74.55;99868.00;6028009;28;20038;-66
2023/09/18 10:00:31;;;;;;;8.23;2.50;;;;;;;23.51;75.82;99879.28;6027878;28;20469;-65
2023/09/18 10:03:27;;;;;;;7.68;2.08;;;;;;;23.49;76.26;99865.19;6042266;28;20420;-66
2023/09/18 10:06:22;;;;;;;8.18;2.55;;;;;;;23.41;76.39;99867.50;6047446;28;20501;-66
2023/09/18 10:09:20;;;;;;;9.02;2.35;;;;;;;23.22;77.91;99869.66;6027060;28;20480;-65
2023/09/18 10:12:20;;;;;;;7.57;2.50;;;;;;;23.21;78.70;99881.53;6027963;28;20034;-65
2023/09/18 10:15:16;;;;;;;7.57;2.63;;;;;;;23.25;78.46;99868.31;6025727;28;20058;-65
2023/09/18 10:18:26;;;;;;;6.80;2.30;;;;;;;23.30;78.85;99861.09;6047954;28;20378;-66
2023/09/18 10:21:48;;;;;;;7.90;2.70;;;;;;;23.60;77.18;99866.94;6025553;28;20538;-65
2023/09/18 10:24:47;;;;;;;7.53;2.50;;;;;;;23.62;76.79;99874.81;6025549;28;20477;-66
2023/09/18 10:27:45;;;;;;;9.85;2.65;;;;;;;23.46;78.90;99884.63;6021464;28;20042;-66
2023/09/18 10:30:41;;;;;;;7.90;2.33;;;;;;;23.28;78.88;99884.88;6027534;28;20474;-66
2023/09/18 10:33:38;;;;;;;7.75;2.50;;;;;;;23.15;79.61;99896.06;6027643;28;20030;-66
2023/09/18 10:36:34;;;;;;;7.47;2.40;;;;;;;23.18;78.10;99882.03;6026610;28;20045;-66
2023/09/18 10:39:30;;;;;;;5.82;2.30;;;;;;;23.26;78.43;99897.84;6025757;28;20035;-66
2023/09/18 10:42:27;;;;;;;9.00;2.20;;;;;;;23.24;77.83;99883.75;6025798;28;20035;-65
2023/09/18 10:45:22;;;;;;;8.85;2.33;;;;;;;23.31;77.46;99884.41;6045662;28;20512;-65
2023/09/18 10:48:19;;;;;;;7.50;2.17;;;;;;;23.45;76.73;99891.13;6027251;28;20038;-66
2023/09/18 10:51:14;;;;;;;5.47;2.00;;;;;;;23.50;77.32;99903.91;6027084;28;20034;-66
2023/09/18 10:54:10;;;;;;;6.90;2.53;;;;;;;23.40;76.78;99896.44;6018999;28;20084;-66
2023/09/18 10:57:06;;;;;;;5.43;1.80;;;;;;;23.37;76.51;99905.06;6018483;28;20364;-66
2023/09/18 11:00:11;;;;;;;5.30;1.83;;;;;;;23.70;76.79;99910.41;6025680;28;20478;-65
2023/09/18 11:03:12;;;;;;;6.45;2.33;;;;;;;23.74;76.95;99899.06;6026164;28;20030;-65
2023/09/18 11:06:11;;;;;;;7.53;1.83;;;;;;;24.13;75.54;99916.91;6025870;28;20058;-65
2023/09/18 11:09:09;;;;;;;6.13;1.83;;;;;;;24.18;73.31;99914.25;6026174;28;20038;-66
2023/09/18 11:12:04;;;;;;;6.80;2.05;;;;;;;24.20;73.47;99939.22;6025364;28;20117;-65
2023/09/18 11:15:00;;;;;;;6.43;1.90;;;;;;;24.02;73.11;99934.91;6017402;28;20022;-65
2023/09/18 11:18:00;;;;;;;6.50;1.77;;;;;;;23.98;74.17;99935.66;6026561;28;20034;-66
2023/09/18 11:21:25;;;;;;;3.78;2.05;;;;;;;23.97;74.87;99947.59;6022191;28;20481;-65
2023/09/18 11:24:21;;;;;;;8.55;2.30;;;;;;;23.73;74.54;99957.03;6024187;28;20042;-66
2023/09/18 11:27:24;;;;;;;8.13;2.10;;;;;;;23.90;74.92;99953.19;6019289;28;20037;-65
2023/09/18 11:30:19;;;;;;;5.15;1.55;;;;;;;23.72;72.76;99956.19;6036094;28;20038;-66
2023/09/18 11:33:15;;;;;;;6.68;1.92;;;;;;;23.59;73.29;99938.41;6021486;28;20520;-65
2023/09/18 11:36:30;;;;;;;5.47;1.50;;;;;;;23.54;73.84;99918.56;6023783;28;20117;-66
2023/09/18 11:39:37;;;;;;;6.60;1.88;;;;;;;23.75;73.48;99938.63;6026083;28;20096;-66
2023/09/18 11:42:32;;;;;;;5.60;1.65;;;;;;;23.60;72.92;99909.44;6025788;28;20041;-65
2023/09/18 11:45:28;;;;;;;9.13;1.97;;;;;;;23.64;73.56;99943.88;6024956;28;20385;-65
2023/09/18 11:48:24;;;;;;;5.60;1.65;;;;;;;23.64;73.02;99927.63;6026081;28;20030;-66
2023/09/18 11:51:22;;;;;;;5.70;1.90;;;;;;;23.58;73.25;99923.25;6025903;28;20401;-66
2023/09/18 11:54:18;;;;;;;10.52;2.10;;;;;;;23.72;72.14;99918.28;6025420;28;20038;-66
2023/09/18 11:57:14;;;;;;;6.65;1.67;;;;;;;23.74;73.14;99920.72;6024256;28;20042;-66
2023/09/18 12:00:24;;;;;;;7.30;1.88;;;;;;;23.81;72.37;99916.75;6012688;28;20037;-66
2023/09/18 12:03:25;;;;;;;4.15;1.52;;;;;;;23.78;73.13;99933.50;6014442;28;20058;-66
2023/09/18 12:06:20;;;;;;;4.30;1.33;;;;;;;23.52;73.81;99918.81;6014424;28;20467;-66
2023/09/18 12:09:15;;;;;;;4.50;1.50;;;;;;;23.60;73.80;99937.34;6016261;28;20035;-65
2023/09/18 12:12:14;;;;;;;8.70;1.77;;;;;;;23.67;73.59;99921.72;6023978;28;20042;-66
2023/09/18 12:15:14;;;;;;;7.20;1.55;;;;;;;23.57;74.20;99897.22;6023581;28;20109;-66
2023/09/18 12:18:13;;;;;;;6.45;2.20;;;;;;;23.88;72.83;99933.66;6020030;28;20026;-66
2023/09/18 12:21:08;;;;;;;4.97;1.70;;;;;;;24.35;72.01;99928.53;6026673;28;20026;-66
2023/09/18 12:24:04;;;;;;;5.60;1.67;;;;;;;24.64;70.08;99929.09;6025259;28;20046;-67
2023/09/18 12:27:00;;;;;;;6.15;1.95;;;;;;;24.62;69.20;99925.84;6024282;28;20034;-67
2023/09/18 12:29:56;;;;;;;6.75;2.08;;;;;;;24.48;70.98;99932.75;6017762;28;20033;-65
2023/09/18 12:32:52;;;;;;;9.60;2.10;;;;;;;24.19;71.92;99935.66;6023377;28;20038;-66
2023/09/18 12:35:47;;;;;;;4.93;1.83;;;;;;;24.16;72.89;99936.19;6029707;28;20037;-66
2023/09/18 12:38:43;;;;;;;6.63;1.95;;;;;;;23.99;73.68;99950.84;6030138;28;20046;-66
2023/09/18 12:41:38;;;;;;;4.60;1.67;;;;;;;23.80;73.42;99939.50;6030373;28;20030;-65
2023/09/18 12:44:33;;;;;;;5.47;1.83;;;;;;;23.65;74.72;99913.03;6029213;28;20352;-66
2023/09/18 12:47:29;;;;;;;6.33;2.00;;;;;;;23.95;74.17;99911.78;6029792;28;20030;-66
2023/09/18 12:50:25;;;;;;;6.97;1.80;;;;;;;23.66;74.44;99898.44;6028971;28;20273;-65
2023/09/18 12:53:22;;;;;;;5.03;1.70;;;;;;;23.64;74.27;99933.06;6029815;28;20042;-66
2023/09/18 12:56:17;;;;;;;6.82;1.83;;;;;;;23.58;73.69;99939.50;6028887;28;20363;-65
2023/09/18 12:59:13;;;;;;;6.23;1.90;;;;;;;23.52;73.20;99937.78;6029727;28;20034;-66
2023/09/18 13:02:12;;;;;;;6.80;1.60;;;;;;;23.22;74.62;99918.34;6029903;28;20117;-65
2023/09/18 13:05:08;;;;;;;4.55;1.48;;;;;;;23.11;75.92;99922.78;6028551;28;20034;-65
2023/09/18 13:08:05;;;;;;;9.50;2.05;;;;;;;23.20;74.89;99920.50;6029474;28;20399;-65
2023/09/18 13:11:06;;;;;;;4.72;1.65;;;;;;;23.16;75.23;99919.34;6029342;28;20096;-66
2023/09/18 13:14:01;;;;;;;6.53;1.58;;;;;;;23.02;74.91;99924.25;6028812;28;20042;-66
2023/09/18 13:17:05;;;;;;;3.23;1.40;;;;;;;23.09;74.47;99921.41;6029178;28;20030;-66
2023/09/18 13:20:07;;;;;;;4.10;1.13;;;;;;;23.10;73.72;99914.94;6030556;28;20300;-67
2023/09/18 13:23:05;;;;;;;4.18;1.77;;;;;;;23.07;72.54;99920.84;6028374;28;20090;-65
2023/09/18 13:26:05;;;;;;;2.75;1.40;;;;;;;23.10;72.53;99920.34;6019945;28;20060;-65
2023/09/18 13:29:00;;;;;;;5.47;1.15;;;;;;;23.02;71.91;99913.44;6029048;28;20041;-65
2023/09/18 13:31:56;;;;;;;5.13;1.50;;;;;;;23.08;73.62;99927.88;6029030;28;20030;-65
2023/09/18 13:34:52;;;;;;;5.00;1.70;;;;;;;22.98;72.29;99930.41;6019685;28;20040;-65
2023/09/18 13:37:48;;;;;;;4.88;1.65;;;;;;;22.86;71.69;99918.84;6028872;28;20026;-65
2023/09/18 13:40:46;;;;;;;3.78;1.50;;;;;;;22.88;72.61;99927.56;6028807;28;20049;-65
2023/09/18 13:43:42;;;;;;;5.07;1.52;;;;;;;22.77;72.77;99931.16;6028837;28;20455;-65